Hayward, South Dakota
Current Conditions -  °F | °C
As of 4:52 PM on Saturday 25 Oct 2014 (Local Time) from KRAP Reporting Station
Clear Clear  
Wind Chill: 64°   Ceiling: Unl
Heat Index: 64°   Visibility: 10mi
Dew Point: 38°   Wind: 12mph
Humidity: 38%   Direction: 160°SSE
Pressure: 29.97"   Gusts: NA
Location:  43.7793°N, 103.069°W
Report Text: KRAP 252252Z 16010KT 10SM CLR 18/03 A2997 RMK AO2 SLP151 T01780033
Loading
Personal Weather Stations






























Interactive Weather Map
Tropical Storm Tracking
New forecast layout! Learn more

10-Day Weather Forecast

Advertisements
Track Severe Weather on mobile